sensor_id;sensor_type;location;lat;lon;timestamp;P1;durP1;ratioP1;P2;durP2;ratioP2
27869;SDS011;15225;50.730;4.244;2023-02-28T17:47:03;6.53;;;4.13;;
27869;SDS011;15225;50.730;4.244;2023-02-28T17:49:29;7.22;;;3.65;;
27869;SDS011;15225;50.730;4.244;2023-02-28T17:51:58;3.50;;;3.20;;
27869;SDS011;15225;50.730;4.244;2023-02-28T17:54:24;5.20;;;3.10;;
27869;SDS011;15225;50.730;4.244;2023-02-28T17:56:50;4.93;;;3.10;;
27869;SDS011;15225;50.730;4.244;2023-02-28T17:59:15;6.00;;;3.53;;
27869;SDS011;15225;50.730;4.244;2023-02-28T18:01:41;10.98;;;3.78;;
27869;SDS011;15225;50.730;4.244;2023-02-28T18:04:07;16.45;;;3.97;;
27869;SDS011;15225;50.730;4.244;2023-02-28T18:06:43;30.38;;;6.32;;
27869;SDS011;15225;50.730;4.244;2023-02-28T18:09:16;5.88;;;4.32;;
27869;SDS011;15225;50.730;4.244;2023-02-28T18:11:46;12.88;;;4.28;;
27869;SDS011;15225;50.730;4.244;2023-02-28T18:14:15;5.57;;;4.05;;
27869;SDS011;15225;50.730;4.244;2023-02-28T18:16:41;5.82;;;3.63;;
27869;SDS011;15225;50.730;4.244;2023-02-28T18:19:08;7.45;;;4.25;;
27869;SDS011;15225;50.730;4.244;2023-02-28T18:21:39;23.92;;;6.28;;
27869;SDS011;15225;50.730;4.244;2023-02-28T18:24:08;9.00;;;4.13;;
27869;SDS011;15225;50.730;4.244;2023-02-28T18:26:35;6.85;;;4.38;;
27869;SDS011;15225;50.730;4.244;2023-02-28T18:29:02;4.63;;;3.50;;
27869;SDS011;15225;50.730;4.244;2023-02-28T18:31:28;9.35;;;4.57;;
27869;SDS011;15225;50.730;4.244;2023-02-28T18:33:56;11.38;;;4.88;;
27869;SDS011;15225;50.730;4.244;2023-02-28T18:36:22;6.15;;;4.88;;
27869;SDS011;15225;50.730;4.244;2023-02-28T18:38:48;13.80;;;5.15;;
27869;SDS011;15225;50.730;4.244;2023-02-28T18:41:15;9.65;;;5.22;;
27869;SDS011;15225;50.730;4.244;2023-02-28T18:43:42;12.07;;;5.32;;
27869;SDS011;15225;50.730;4.244;2023-02-28T18:46:09;10.15;;;5.35;;
27869;SDS011;15225;50.730;4.244;2023-02-28T18:48:37;9.35;;;5.50;;
27869;SDS011;15225;50.730;4.244;2023-02-28T18:51:13;15.77;;;5.63;;
27869;SDS011;15225;50.730;4.244;2023-02-28T18:53:41;11.77;;;5.95;;
27869;SDS011;15225;50.730;4.244;2023-02-28T18:56:07;13.57;;;6.18;;
27869;SDS011;15225;50.730;4.244;2023-02-28T18:58:37;24.23;;;10.23;;
27869;SDS011;15225;50.730;4.244;2023-02-28T19:01:03;20.25;;;9.63;;
27869;SDS011;15225;50.730;4.244;2023-02-28T19:03:45;13.68;;;8.00;;
27869;SDS011;15225;50.730;4.244;2023-02-28T19:06:11;19.70;;;9.13;;
27869;SDS011;15225;50.730;4.244;2023-02-28T19:08:38;13.95;;;6.78;;
27869;SDS011;15225;50.730;4.244;2023-02-28T19:11:22;19.40;;;8.10;;
27869;SDS011;15225;50.730;4.244;2023-02-28T19:13:48;12.77;;;7.13;;
27869;SDS011;15225;50.730;4.244;2023-02-28T19:16:15;12.95;;;7.32;;
27869;SDS011;15225;50.730;4.244;2023-02-28T19:18:41;15.82;;;7.50;;
27869;SDS011;15225;50.730;4.244;2023-02-28T19:21:08;14.93;;;7.38;;
27869;SDS011;15225;50.730;4.244;2023-02-28T19:23:35;11.63;;;7.72;;
27869;SDS011;15225;50.730;4.244;2023-02-28T19:26:08;17.25;;;7.78;;
27869;SDS011;15225;50.730;4.244;2023-02-28T19:28:40;13.07;;;8.20;;
27869;SDS011;15225;50.730;4.244;2023-02-28T19:31:13;11.02;;;6.63;;
27869;SDS011;15225;50.730;4.244;2023-02-28T19:33:40;14.45;;;7.15;;
27869;SDS011;15225;50.730;4.244;2023-02-28T19:36:07;13.02;;;7.10;;
27869;SDS011;15225;50.730;4.244;2023-02-28T19:38:36;15.48;;;7.50;;
27869;SDS011;15225;50.730;4.244;2023-02-28T19:41:03;10.02;;;6.70;;
27869;SDS011;15225;50.730;4.244;2023-02-28T19:43:34;10.90;;;6.78;;
27869;SDS011;15225;50.730;4.244;2023-02-28T19:45:59;14.23;;;7.53;;
27869;SDS011;15225;50.730;4.244;2023-02-28T19:48:26;11.80;;;7.75;;
27869;SDS011;15225;50.730;4.244;2023-02-28T19:50:56;14.48;;;8.27;;
27869;SDS011;15225;50.730;4.244;2023-02-28T19:53:28;16.10;;;7.82;;
27869;SDS011;15225;50.730;4.244;2023-02-28T19:55:55;14.27;;;7.65;;
27869;SDS011;15225;50.730;4.244;2023-02-28T19:58:21;13.05;;;7.13;;
27869;SDS011;15225;50.730;4.244;2023-02-28T20:00:47;14.00;;;8.27;;
27869;SDS011;15225;50.730;4.244;2023-02-28T20:03:13;14.32;;;8.45;;
27869;SDS011;15225;50.730;4.244;2023-02-28T20:05:40;16.23;;;8.38;;
27869;SDS011;15225;50.730;4.244;2023-02-28T20:08:06;12.38;;;8.68;;
27869;SDS011;15225;50.730;4.244;2023-02-28T20:10:32;25.25;;;9.60;;
27869;SDS011;15225;50.730;4.244;2023-02-28T20:12:58;13.50;;;8.15;;
27869;SDS011;15225;50.730;4.244;2023-02-28T20:15:24;16.10;;;8.55;;
27869;SDS011;15225;50.730;4.244;2023-02-28T20:17:50;11.48;;;8.73;;
27869;SDS011;15225;50.730;4.244;2023-02-28T20:20:16;17.92;;;9.43;;
27869;SDS011;15225;50.730;4.244;2023-02-28T20:22:41;17.13;;;9.70;;
27869;SDS011;15225;50.730;4.244;2023-02-28T20:25:08;14.52;;;9.52;;
27869;SDS011;15225;50.730;4.244;2023-02-28T20:27:35;18.90;;;12.27;;
27869;SDS011;15225;50.730;4.244;2023-02-28T20:30:02;18.92;;;10.75;;
27869;SDS011;15225;50.730;4.244;2023-02-28T20:32:28;20.13;;;11.27;;
27869;SDS011;15225;50.730;4.244;2023-02-28T20:34:54;19.88;;;11.00;;
27869;SDS011;15225;50.730;4.244;2023-02-28T20:37:20;27.88;;;15.98;;
27869;SDS011;15225;50.730;4.244;2023-02-28T20:39:46;26.45;;;14.55;;
27869;SDS011;15225;50.730;4.244;2023-02-28T20:42:13;28.10;;;14.27;;
27869;SDS011;15225;50.730;4.244;2023-02-28T20:44:39;20.05;;;13.73;;
27869;SDS011;15225;50.730;4.244;2023-02-28T20:47:04;21.65;;;14.45;;
27869;SDS011;15225;50.730;4.244;2023-02-28T20:49:30;27.42;;;13.93;;
27869;SDS011;15225;50.730;4.244;2023-02-28T20:51:56;20.92;;;12.00;;
27869;SDS011;15225;50.730;4.244;2023-02-28T20:54:22;20.63;;;12.00;;
27869;SDS011;15225;50.730;4.244;2023-02-28T20:56:47;25.52;;;13.05;;
27869;SDS011;15225;50.730;4.244;2023-02-28T20:59:13;26.95;;;12.82;;
27869;SDS011;15225;50.730;4.244;2023-02-28T21:01:38;22.70;;;13.63;;
27869;SDS011;15225;50.730;4.244;2023-02-28T21:04:06;24.27;;;13.95;;
27869;SDS011;15225;50.730;4.244;2023-02-28T21:06:37;22.58;;;12.60;;
27869;SDS011;15225;50.730;4.244;2023-02-28T21:09:07;24.00;;;13.30;;
27869;SDS011;15225;50.730;4.244;2023-02-28T21:11:35;23.50;;;12.35;;
27869;SDS011;15225;50.730;4.244;2023-02-28T21:14:03;21.92;;;11.52;;
27869;SDS011;15225;50.730;4.244;2023-02-28T21:16:31;13.65;;;9.38;;
27869;SDS011;15225;50.730;4.244;2023-02-28T21:18:57;16.85;;;9.73;;
27869;SDS011;15225;50.730;4.244;2023-02-28T21:21:30;13.88;;;9.30;;
27869;SDS011;15225;50.730;4.244;2023-02-28T21:23:58;16.00;;;9.10;;
27869;SDS011;15225;50.730;4.244;2023-02-28T21:26:24;14.25;;;8.43;;
27869;SDS011;15225;50.730;4.244;2023-02-28T21:28:50;14.57;;;8.43;;
27869;SDS011;15225;50.730;4.244;2023-02-28T21:31:19;17.45;;;8.25;;
27869;SDS011;15225;50.730;4.244;2023-02-28T21:33:46;13.30;;;8.63;;
27869;SDS011;15225;50.730;4.244;2023-02-28T21:36:16;11.77;;;7.80;;
27869;SDS011;15225;50.730;4.244;2023-02-28T21:38:44;12.35;;;8.57;;
27869;SDS011;15225;50.730;4.244;2023-02-28T21:41:16;17.02;;;8.63;;
27869;SDS011;15225;50.730;4.244;2023-02-28T21:43:44;13.32;;;8.80;;
27869;SDS011;15225;50.730;4.244;2023-02-28T21:46:12;13.57;;;8.23;;
27869;SDS011;15225;50.730;4.244;2023-02-28T21:48:43;13.77;;;7.93;;
27869;SDS011;15225;50.730;4.244;2023-02-28T21:51:13;13.85;;;8.27;;
27869;SDS011;15225;50.730;4.244;2023-02-28T21:53:44;14.10;;;8.73;;
27869;SDS011;15225;50.730;4.244;2023-02-28T21:56:20;14.98;;;8.18;;
27869;SDS011;15225;50.730;4.244;2023-02-28T21:58:47;14.18;;;8.43;;
27869;SDS011;15225;50.730;4.244;2023-02-28T22:01:14;20.83;;;8.20;;
27869;SDS011;15225;50.730;4.244;2023-02-28T22:03:40;13.95;;;8.32;;
27869;SDS011;15225;50.730;4.244;2023-02-28T22:06:10;14.77;;;8.82;;
27869;SDS011;15225;50.730;4.244;2023-02-28T22:08:39;13.00;;;8.38;;
27869;SDS011;15225;50.730;4.244;2023-02-28T22:11:05;13.65;;;8.50;;
27869;SDS011;15225;50.730;4.244;2023-02-28T22:13:32;16.23;;;9.35;;
27869;SDS011;15225;50.730;4.244;2023-02-28T22:16:05;20.02;;;10.65;;
27869;SDS011;15225;50.730;4.244;2023-02-28T22:18:35;17.63;;;9.52;;
27869;SDS011;15225;50.730;4.244;2023-02-28T22:21:02;21.63;;;10.55;;
27869;SDS011;15225;50.730;4.244;2023-02-28T22:23:28;18.77;;;10.27;;
27869;SDS011;15225;50.730;4.244;2023-02-28T22:25:54;17.85;;;9.70;;
27869;SDS011;15225;50.730;4.244;2023-02-28T22:28:20;19.02;;;10.05;;
27869;SDS011;15225;50.730;4.244;2023-02-28T22:30:47;18.00;;;10.32;;
27869;SDS011;15225;50.730;4.244;2023-02-28T22:33:14;16.95;;;9.90;;
27869;SDS011;15225;50.730;4.244;2023-02-28T22:35:41;16.60;;;9.23;;
27869;SDS011;15225;50.730;4.244;2023-02-28T22:38:07;13.02;;;9.00;;
27869;SDS011;15225;50.730;4.244;2023-02-28T22:40:34;16.45;;;10.13;;
27869;SDS011;15225;50.730;4.244;2023-02-28T22:43:01;13.95;;;8.93;;
27869;SDS011;15225;50.730;4.244;2023-02-28T22:45:26;18.10;;;10.07;;
